createdAt,value
2022-11-01T00:01:00.447Z,76.03
2022-11-01T00:03:31.314Z,76.08
2022-11-01T00:06:02.216Z,76.14
2022-11-01T00:08:33.267Z,76.18
2022-11-01T00:11:09.145Z,76.22
2022-11-01T00:13:39.932Z,76.30
2022-11-01T00:16:11.289Z,76.31
2022-11-01T00:18:42.572Z,76.38
2022-11-01T00:21:14.542Z,76.37
2022-11-01T00:23:46.370Z,76.40
2022-11-01T00:26:20.163Z,76.44
2022-11-01T00:28:51.922Z,76.37
2022-11-01T00:31:23.464Z,76.42
2022-11-01T00:33:54.402Z,76.49
2022-11-01T00:36:25.272Z,76.46
2022-11-01T00:38:56.190Z,76.25
2022-11-01T00:41:27.080Z,76.33
2022-11-01T00:43:57.938Z,76.28
2022-11-01T00:46:29.271Z,76.33
2022-11-01T00:49:00.278Z,76.39
2022-11-01T00:51:31.286Z,76.47
2022-11-01T00:54:02.403Z,76.36
2022-11-01T00:56:33.254Z,76.37
2022-11-01T00:59:04.179Z,76.39
2022-11-01T01:01:35.198Z,76.58
2022-11-01T01:04:07.205Z,76.74
2022-11-01T01:06:37.982Z,76.78
2022-11-01T01:09:08.773Z,76.83
2022-11-01T01:11:39.727Z,76.83
2022-11-01T01:14:10.800Z,76.80
2022-11-01T01:19:17.362Z,77.08
2022-11-01T01:21:48.239Z,77.28
2022-11-01T01:24:19.050Z,77.28
2022-11-01T01:26:50.335Z,77.29
2022-11-01T01:29:21.196Z,77.29
2022-11-01T01:31:52.544Z,77.28
2022-11-01T01:34:23.603Z,77.32
2022-11-01T01:36:54.384Z,77.31
2022-11-01T01:39:25.384Z,77.33
2022-11-01T01:41:59.401Z,77.23
2022-11-01T01:45:15.145Z,77.20
2022-11-01T01:47:49.240Z,77.20
2022-11-01T01:50:24.508Z,77.36
2022-11-01T01:53:00.540Z,77.35
2022-11-01T01:55:36.620Z,77.33
2022-11-01T01:58:10.448Z,77.27
2022-11-01T02:00:43.222Z,77.44
2022-11-01T02:03:15.560Z,77.43
2022-11-01T02:05:51.856Z,77.33
2022-11-01T02:08:28.267Z,77.44
2022-11-01T02:11:02.017Z,77.45
2022-11-01T02:13:33.286Z,77.50
2022-11-01T02:16:20.714Z,77.50
2022-11-01T02:19:01.583Z,77.57
2022-11-01T02:22:02.310Z,77.66
2022-11-01T02:25:10.957Z,77.65
2022-11-01T02:27:55.605Z,77.65
2022-11-01T02:30:33.083Z,77.62
2022-11-01T02:33:14.830Z,77.82
2022-11-01T02:35:59.383Z,77.70
2022-11-01T02:38:36.208Z,77.68
2022-11-01T02:41:13.116Z,77.68
2022-11-01T02:43:50.391Z,77.65
2022-11-01T02:46:41.197Z,77.75
2022-11-01T02:49:16.599Z,77.90
2022-11-01T02:51:49.612Z,77.73
2022-11-01T02:54:24.443Z,77.66
2022-11-01T02:56:55.900Z,77.72
2022-11-01T02:59:29.364Z,77.75
2022-11-01T03:02:05.928Z,77.84
2022-11-01T03:04:37.463Z,78.00
2022-11-01T03:07:12.846Z,77.98
2022-11-01T03:09:44.533Z,78.11
2022-11-01T03:12:25.616Z,78.23
2022-11-01T03:15:01.495Z,78.40
2022-11-01T03:17:34.936Z,78.29
2022-11-01T03:20:10.384Z,78.20
2022-11-01T03:22:45.253Z,78.20
2022-11-01T03:25:41.030Z,78.29
2022-11-01T03:28:16.482Z,78.17
2022-11-01T03:30:51.353Z,78.29
2022-11-01T03:33:25.229Z,78.28
2022-11-01T03:36:02.194Z,78.19
2022-11-01T03:38:38.495Z,78.33
2022-11-01T03:41:14.977Z,78.27
2022-11-01T03:43:47.465Z,78.25
2022-11-01T03:46:18.742Z,78.22
2022-11-01T03:48:49.577Z,78.15
2022-11-01T03:51:20.504Z,78.19
2022-11-01T03:53:51.292Z,78.28
2022-11-01T03:56:22.249Z,78.41
2022-11-01T03:58:53.144Z,78.50
2022-11-01T04:01:24.070Z,78.48
2022-11-01T04:03:55.033Z,78.50
2022-11-01T04:06:25.857Z,78.39
2022-11-01T04:08:56.800Z,78.47
2022-11-01T04:11:27.660Z,78.58
2022-11-01T04:14:18.526Z,78.59
2022-11-01T04:17:06.849Z,78.62
2022-11-01T04:19:55.485Z,78.46
2022-11-01T04:22:26.802Z,78.35
2022-11-01T04:24:57.661Z,78.50
2022-11-01T04:27:28.511Z,78.70
2022-11-01T04:29:59.400Z,78.58
2022-11-01T04:32:30.190Z,78.57
2022-11-01T04:35:01.086Z,78.61
2022-11-01T04:37:32.266Z,78.45
2022-11-01T04:40:03.131Z,78.41
2022-11-01T04:42:35.098Z,78.58
2022-11-01T04:45:07.508Z,78.35
2022-11-01T04:47:38.386Z,78.49
2022-11-01T04:50:09.972Z,78.80
2022-11-01T04:52:40.834Z,78.79
2022-11-01T04:55:12.109Z,78.88
2022-11-01T04:57:43.634Z,78.82
2022-11-01T05:00:16.673Z,78.81
2022-11-01T05:02:47.551Z,78.66
2022-11-01T05:05:20.325Z,78.62
2022-11-01T05:07:51.194Z,78.69
2022-11-01T05:10:21.977Z,78.66
2022-11-01T05:12:52.802Z,78.77
2022-11-01T05:15:23.758Z,78.66
2022-11-01T05:17:54.641Z,78.58
2022-11-01T05:20:25.850Z,78.52
2022-11-01T05:23:01.303Z,78.50
2022-11-01T05:25:37.019Z,78.48
2022-11-01T05:28:14.650Z,78.48
2022-11-01T05:30:45.954Z,78.56
2022-11-01T05:33:16.815Z,78.65
2022-11-01T05:35:47.653Z,78.77
2022-11-01T05:38:18.477Z,78.70
2022-11-01T05:40:50.618Z,78.46
2022-11-01T05:43:21.676Z,78.33
2022-11-01T05:45:52.569Z,78.47
2022-11-01T05:48:23.387Z,78.36
2022-11-01T05:50:54.171Z,78.34
2022-11-01T05:53:25.223Z,78.25
2022-11-01T05:55:58.788Z,78.32
2022-11-01T05:58:30.903Z,78.20
2022-11-01T06:01:03.776Z,78.15
2022-11-01T06:03:35.156Z,78.27
2022-11-01T06:06:06.773Z,78.10
2022-11-01T06:08:37.640Z,78.16
2022-11-01T06:11:08.835Z,78.21
2022-11-01T06:13:39.699Z,78.41
2022-11-01T06:16:11.356Z,78.43
2022-11-01T06:18:42.293Z,78.27
2022-11-01T06:21:13.232Z,78.41
2022-11-01T06:23:47.636Z,78.57
2022-11-01T06:26:19.437Z,78.62
2022-11-01T06:28:50.327Z,78.77
2022-11-01T06:31:22.133Z,78.75
2022-11-01T06:33:53.052Z,78.63
2022-11-01T06:36:24.208Z,78.59
2022-11-01T06:38:55.078Z,78.83
2022-11-01T06:41:25.962Z,78.94
2022-11-01T06:43:56.815Z,78.85
2022-11-01T06:46:28.031Z,78.81
2022-11-01T06:48:58.997Z,78.99
2022-11-01T06:51:30.545Z,79.03
2022-11-01T06:54:01.646Z,79.12
2022-11-01T06:56:32.533Z,79.00
2022-11-01T06:59:03.382Z,79.10
2022-11-01T07:01:34.371Z,79.24
2022-11-01T07:04:05.502Z,79.07
2022-11-01T07:06:36.576Z,79.22
2022-11-01T07:09:07.576Z,79.22
2022-11-01T07:11:38.840Z,79.11
2022-11-01T07:14:10.431Z,78.91
2022-11-01T07:16:41.395Z,79.05
2022-11-01T07:19:15.179Z,79.01
2022-11-01T07:21:46.223Z,79.08
2022-11-01T07:24:17.209Z,78.98
2022-11-01T07:26:48.078Z,79.12
2022-11-01T07:29:20.610Z,79.18
2022-11-01T07:31:51.422Z,79.12
2022-11-01T07:34:22.266Z,79.10
2022-11-01T07:36:56.238Z,79.24
2022-11-01T07:39:27.187Z,79.40
2022-11-01T07:42:01.560Z,79.51
2022-11-01T07:44:36.487Z,79.51
2022-11-01T07:47:08.165Z,79.54
2022-11-01T07:49:54.794Z,79.54
2022-11-01T07:52:26.733Z,79.60
2022-11-01T07:54:58.107Z,79.67
2022-11-01T07:57:29.273Z,79.71
2022-11-01T08:00:05.450Z,79.57
2022-11-01T08:02:43.424Z,79.55
2022-11-01T08:05:18.246Z,79.52
2022-11-01T08:07:49.737Z,79.31
2022-11-01T08:10:25.011Z,79.38
2022-11-01T08:13:00.903Z,79.32
2022-11-01T08:15:32.504Z,79.27
2022-11-01T08:18:10.046Z,79.10
2022-11-01T08:20:41.763Z,79.03
2022-11-01T08:23:13.604Z,79.12
2022-11-01T08:25:44.858Z,79.03
2022-11-01T08:28:23.127Z,79.07
2022-11-01T08:30:54.562Z,79.07
2022-11-01T08:33:25.681Z,79.13
2022-11-01T08:35:56.602Z,79.10
2022-11-01T08:38:27.820Z,79.13
2022-11-01T08:41:07.720Z,79.15
2022-11-01T08:43:40.684Z,79.19
2022-11-01T08:46:16.236Z,79.10
2022-11-01T08:48:52.329Z,78.94
2022-11-01T08:51:26.086Z,78.75
2022-11-01T08:54:25.949Z,78.44
2022-11-01T08:56:58.354Z,78.08
2022-11-01T08:59:29.315Z,77.88
2022-11-01T09:02:14.167Z,78.12
2022-11-01T09:04:46.013Z,78.15
2022-11-01T09:07:20.221Z,78.27
2022-11-01T09:09:51.944Z,78.29
2022-11-01T09:12:24.770Z,78.40
2022-11-01T09:14:56.132Z,78.24
2022-11-01T09:17:27.322Z,78.08
2022-11-01T09:19:58.592Z,78.10
2022-11-01T09:22:30.167Z,78.10
2022-11-01T09:25:01.471Z,78.02
2022-11-01T09:27:32.464Z,78.15
2022-11-01T09:30:03.362Z,78.13
2022-11-01T09:32:34.454Z,77.93
2022-11-01T09:35:06.172Z,77.78
2022-11-01T09:37:37.313Z,77.84
2022-11-01T09:40:10.723Z,77.99
2022-11-01T09:42:46.120Z,77.97
2022-11-01T09:45:22.315Z,77.93
2022-11-01T09:47:57.593Z,77.78
2022-11-01T09:50:33.740Z,77.71
2022-11-01T09:53:10.738Z,77.41
2022-11-01T09:55:49.160Z,77.25
2022-11-01T09:58:28.335Z,77.17
2022-11-01T10:01:11.873Z,77.36
2022-11-01T10:03:55.832Z,77.71
2022-11-01T10:06:29.280Z,77.58
2022-11-01T10:09:08.688Z,77.52
2022-11-01T10:11:59.248Z,77.31
2022-11-01T10:14:45.482Z,77.32
2022-11-01T10:17:18.848Z,77.39
2022-11-01T10:19:51.980Z,77.23
2022-11-01T10:22:34.461Z,77.38
2022-11-01T10:25:19.407Z,77.28
2022-11-01T10:28:00.871Z,76.80
2022-11-01T10:30:36.681Z,76.92
2022-11-01T10:33:22.989Z,76.95
2022-11-01T10:35:57.906Z,76.56
2022-11-01T10:38:54.159Z,76.36
2022-11-01T10:41:28.663Z,76.15
2022-11-01T10:44:04.822Z,76.03
2022-11-01T10:46:41.032Z,76.08
2022-11-01T10:49:24.824Z,76.46
2022-11-01T10:52:00.457Z,76.43
2022-11-01T10:54:36.493Z,76.29
2022-11-01T10:57:12.824Z,76.32
2022-11-01T10:59:47.594Z,76.25
2022-11-01T11:02:24.039Z,76.35
2022-11-01T11:04:56.569Z,76.42
2022-11-01T11:07:30.907Z,76.59
2022-11-01T11:10:03.193Z,76.56
2022-11-01T11:12:35.043Z,76.62
2022-11-01T11:15:18.021Z,76.53
2022-11-01T11:17:55.499Z,76.68
2022-11-01T11:20:30.362Z,76.51
2022-11-01T11:23:04.784Z,76.65
2022-11-01T11:25:38.657Z,76.86
2022-11-01T11:28:23.625Z,76.84
2022-11-01T11:30:55.205Z,76.77
2022-11-01T11:33:26.404Z,76.89
2022-11-01T11:36:00.244Z,76.87
2022-11-01T11:38:46.511Z,76.80
2022-11-01T11:41:30.032Z,76.79
2022-11-01T11:44:01.599Z,76.65
2022-11-01T11:46:32.540Z,76.73
2022-11-01T11:49:07.232Z,76.77
2022-11-01T11:51:39.557Z,76.96
2022-11-01T11:54:26.147Z,76.90
2022-11-01T11:57:12.392Z,76.76
2022-11-01T12:02:25.033Z,76.67
2022-11-01T12:04:59.409Z,76.56
2022-11-01T12:07:33.262Z,76.65
2022-11-01T12:10:06.712Z,76.54
2022-11-01T12:12:42.878Z,76.66
2022-11-01T12:18:20.052Z,76.85
2022-11-01T12:20:53.690Z,77.04
2022-11-01T12:23:32.099Z,77.16
2022-11-01T12:26:08.576Z,77.14
2022-11-01T12:28:44.678Z,77.19
2022-11-01T12:31:19.565Z,77.05
2022-11-01T12:33:57.536Z,77.06
2022-11-01T12:36:32.589Z,77.13
2022-11-01T12:39:13.648Z,77.32
2022-11-01T12:41:49.020Z,77.25
2022-11-01T12:44:36.213Z,77.15
2022-11-01T12:47:14.435Z,77.24
2022-11-01T12:49:53.201Z,77.42
2022-11-01T12:52:40.709Z,77.35
2022-11-01T12:55:21.127Z,77.36
2022-11-01T12:57:52.329Z,77.39
2022-11-01T13:00:24.724Z,77.55
2022-11-01T13:03:07.841Z,77.45
2022-11-01T13:05:50.369Z,77.42
2022-11-01T13:08:33.247Z,77.20
2022-11-01T13:11:15.939Z,77.01
2022-11-01T13:13:53.666Z,77.06
2022-11-01T13:16:31.619Z,77.14
2022-11-01T13:19:20.075Z,77.24
2022-11-01T13:21:58.339Z,77.30
2022-11-01T13:24:37.457Z,77.23
2022-11-01T13:27:16.725Z,77.28
2022-11-01T13:30:00.774Z,76.94
2022-11-01T13:32:38.338Z,76.78
2022-11-01T13:35:40.854Z,76.79
2022-11-01T13:38:22.201Z,76.67
2022-11-01T13:41:00.305Z,76.86
2022-11-01T13:43:38.945Z,76.85
2022-11-01T13:46:39.229Z,76.90
2022-11-01T13:49:58.494Z,77.05
2022-11-01T13:52:33.935Z,77.00
2022-11-01T13:55:15.232Z,77.05
2022-11-01T13:57:46.521Z,77.02
2022-11-01T14:00:38.601Z,76.89
2022-11-01T14:03:27.740Z,76.94
2022-11-01T14:06:36.615Z,76.83
2022-11-01T14:09:43.323Z,76.91
2022-11-01T14:12:33.859Z,76.72
2022-11-01T14:15:19.368Z,76.86
2022-11-01T14:18:03.986Z,76.88
2022-11-01T14:20:49.609Z,76.98
2022-11-01T14:23:54.940Z,77.08
2022-11-01T14:27:02.030Z,77.05
2022-11-01T14:29:36.804Z,76.89
2022-11-01T14:32:10.660Z,76.86
2022-11-01T14:34:45.472Z,77.07
2022-11-01T14:37:24.686Z,77.22
2022-11-01T14:40:04.177Z,77.34
2022-11-01T14:42:43.385Z,77.47
2022-11-01T14:45:28.820Z,77.48
2022-11-01T14:48:08.199Z,77.43
2022-11-01T14:50:47.977Z,77.61
2022-11-01T14:53:27.926Z,77.68
2022-11-01T14:56:16.578Z,77.74
2022-11-01T14:58:48.017Z,77.67
2022-11-01T15:01:23.629Z,77.78
2022-11-01T15:04:00.161Z,77.56
2022-11-01T15:06:32.335Z,77.63
2022-11-01T15:09:04.870Z,77.44
2022-11-01T15:11:37.371Z,77.44
2022-11-01T15:14:10.181Z,77.52
2022-11-01T15:16:45.086Z,77.49
2022-11-01T15:19:23.057Z,77.59
2022-11-01T15:21:54.332Z,77.62
2022-11-01T15:24:27.390Z,77.62
2022-11-01T15:27:05.218Z,77.75
2022-11-01T15:29:37.034Z,77.62
2022-11-01T15:32:08.075Z,77.70
2022-11-01T15:34:39.092Z,77.71
2022-11-01T15:37:24.129Z,77.74
2022-11-01T15:39:55.251Z,77.61
2022-11-01T15:42:32.208Z,77.61
2022-11-01T15:45:23.032Z,77.47
2022-11-01T15:47:54.300Z,77.40
2022-11-01T15:50:25.383Z,77.50
2022-11-01T15:52:58.304Z,77.55
2022-11-01T15:55:34.441Z,77.57
2022-11-01T15:58:08.939Z,77.61
2022-11-01T16:00:43.552Z,77.50
2022-11-01T16:03:20.554Z,77.41
2022-11-01T16:05:58.542Z,77.66
2022-11-01T16:08:36.624Z,77.69
2022-11-01T16:11:08.647Z,77.79
2022-11-01T16:13:40.793Z,77.65
2022-11-01T16:16:12.706Z,77.77
2022-11-01T16:18:46.398Z,77.82
2022-11-01T16:21:37.176Z,77.54
2022-11-01T16:24:15.888Z,77.56
2022-11-01T16:27:00.184Z,77.33
2022-11-01T16:29:52.023Z,77.27
2022-11-01T16:32:27.269Z,77.39
2022-11-01T16:34:56.911Z,77.45
2022-11-01T16:37:29.614Z,77.50
2022-11-01T16:40:20.578Z,77.60
2022-11-01T16:42:52.456Z,77.52
2022-11-01T16:45:23.933Z,77.57
2022-11-01T16:47:58.267Z,77.46
2022-11-01T16:50:31.582Z,77.26
2022-11-01T16:53:03.444Z,77.22
2022-11-01T16:55:36.460Z,77.35
2022-11-01T16:58:11.532Z,77.24
2022-11-01T17:00:43.072Z,77.36
2022-11-01T17:03:15.800Z,77.45
2022-11-01T17:05:47.215Z,77.40
2022-11-01T17:08:21.690Z,77.26
2022-11-01T17:10:53.568Z,77.43
2022-11-01T17:13:24.829Z,77.50
2022-11-01T17:15:55.778Z,77.62
2022-11-01T17:18:30.558Z,77.90
2022-11-01T17:21:03.526Z,77.99
2022-11-01T17:23:35.893Z,77.98
2022-11-01T17:26:09.421Z,77.99
2022-11-01T17:28:41.528Z,78.08
2022-11-01T17:31:12.533Z,78.06
2022-11-01T17:33:45.112Z,78.23
2022-11-01T17:36:18.678Z,78.14
2022-11-01T17:38:50.449Z,78.16
2022-11-01T17:41:21.892Z,78.17
2022-11-01T17:43:52.917Z,78.18
2022-11-01T17:46:27.483Z,78.14
2022-11-01T17:48:58.493Z,78.24
2022-11-01T17:51:30.164Z,78.11
2022-11-01T17:54:01.251Z,78.12
2022-11-01T17:56:32.394Z,78.22
2022-11-01T17:59:03.835Z,78.24
2022-11-01T18:01:34.960Z,78.22
2022-11-01T18:04:14.116Z,78.26
2022-11-01T18:06:45.261Z,78.40
2022-11-01T18:09:24.746Z,78.22
2022-11-01T18:12:06.659Z,78.11
2022-11-01T18:14:49.904Z,78.19
2022-11-01T18:17:36.781Z,78.12
2022-11-01T18:20:21.691Z,78.26
2022-11-01T18:23:03.210Z,78.37
2022-11-01T18:25:49.491Z,78.49
2022-11-01T18:28:25.441Z,78.46
2022-11-01T18:30:58.186Z,78.47
2022-11-01T18:33:38.311Z,78.44
2022-11-01T18:36:18.980Z,78.49
2022-11-01T18:38:59.293Z,78.26
2022-11-01T18:41:30.747Z,78.11
2022-11-01T18:44:04.669Z,78.24
2022-11-01T18:46:43.558Z,78.13
2022-11-01T18:49:15.498Z,78.00
2022-11-01T18:51:49.541Z,78.03
2022-11-01T18:54:32.955Z,78.06
2022-11-01T18:57:18.536Z,78.16
2022-11-01T18:59:55.817Z,78.22
2022-11-01T19:02:28.412Z,78.29
2022-11-01T19:05:15.413Z,78.22
2022-11-01T19:08:20.869Z,78.04
2022-11-01T19:10:44.799Z,78.08
2022-11-01T19:13:24.452Z,78.07
2022-11-01T19:15:58.066Z,78.03
2022-11-01T19:18:29.949Z,78.10
2022-11-01T19:21:03.678Z,78.14
2022-11-01T19:23:38.408Z,78.11
2022-11-01T19:26:19.594Z,78.12
2022-11-01T19:28:52.614Z,78.22
2022-11-01T19:31:34.542Z,78.32
2022-11-01T19:34:18.855Z,78.30
2022-11-01T19:36:53.256Z,78.35
2022-11-01T19:39:28.014Z,78.33
2022-11-01T19:42:02.409Z,78.41
2022-11-01T19:44:52.964Z,78.37
2022-11-01T19:47:39.208Z,78.51
2022-11-01T19:50:23.612Z,78.42
2022-11-01T19:53:00.204Z,78.47
2022-11-01T19:55:51.097Z,78.47
2022-11-01T19:58:28.679Z,78.40
2022-11-01T20:01:31.570Z,78.47
2022-11-01T20:04:05.734Z,78.43
2022-11-01T20:06:46.754Z,78.52
2022-11-01T20:09:22.890Z,78.62
2022-11-01T20:11:54.716Z,78.61
2022-11-01T20:14:26.207Z,78.59
2022-11-01T20:16:57.279Z,78.60
2022-11-01T20:19:28.841Z,78.67
2022-11-01T20:22:00.252Z,78.73
2022-11-01T20:24:31.849Z,78.74
2022-11-01T20:27:03.922Z,78.64
2022-11-01T20:29:35.563Z,78.62
2022-11-01T20:32:07.503Z,78.58
2022-11-01T20:34:38.739Z,78.67
2022-11-01T20:37:27.493Z,78.72
2022-11-01T20:40:01.310Z,78.64
2022-11-01T20:42:32.631Z,78.76
2022-11-01T20:45:03.500Z,78.73
2022-11-01T20:47:34.530Z,78.82
2022-11-01T20:50:08.261Z,78.92
2022-11-01T20:52:40.197Z,78.91
2022-11-01T20:55:14.083Z,78.85
2022-11-01T20:57:45.255Z,78.99
2022-11-01T21:00:19.708Z,78.92
2022-11-01T21:02:50.717Z,78.80
2022-11-01T21:05:28.217Z,78.89
2022-11-01T21:08:09.714Z,78.79
2022-11-01T21:10:41.888Z,78.88
2022-11-01T21:13:31.310Z,78.97
2022-11-01T21:16:04.030Z,79.07
2022-11-01T21:18:38.059Z,79.04
2022-11-01T21:21:46.228Z,78.92
2022-11-01T21:24:39.231Z,78.98
2022-11-01T21:30:17.657Z,79.06
2022-11-01T21:32:49.345Z,79.08
2022-11-01T21:35:41.064Z,79.20
2022-11-01T21:38:38.732Z,79.13
2022-11-01T21:41:24.532Z,79.27
2022-11-01T21:43:57.821Z,79.12
2022-11-01T21:46:36.709Z,79.07
2022-11-01T21:49:24.301Z,79.24
2022-11-01T21:51:56.382Z,79.30
2022-11-01T21:54:28.048Z,79.16
2022-11-01T21:56:59.316Z,79.12
2022-11-01T21:59:30.878Z,79.28
2022-11-01T22:02:02.887Z,79.15
2022-11-01T22:04:34.348Z,79.32
2022-11-01T22:07:07.021Z,79.45
2022-11-01T22:09:38.614Z,79.40
2022-11-01T22:12:10.218Z,79.40
2022-11-01T22:14:41.171Z,79.34
2022-11-01T22:17:12.198Z,79.23
2022-11-01T22:19:43.055Z,79.22
2022-11-01T22:22:13.926Z,79.23
2022-11-01T22:24:45.054Z,79.27
2022-11-01T22:27:16.531Z,79.21
2022-11-01T22:29:47.725Z,79.38
2022-11-01T22:32:19.130Z,79.23
2022-11-01T22:34:50.177Z,79.26
2022-11-01T22:37:21.217Z,79.28
2022-11-01T22:39:53.168Z,79.23
2022-11-01T22:42:26.015Z,79.10
2022-11-01T22:44:57.373Z,79.11
2022-11-01T22:47:29.930Z,79.06
2022-11-01T22:50:04.064Z,79.12
2022-11-01T22:52:38.619Z,79.06
2022-11-01T22:55:21.957Z,79.07
2022-11-01T22:57:58.907Z,79.04
2022-11-01T23:00:36.322Z,79.08
2022-11-01T23:03:21.516Z,79.10
2022-11-01T23:05:56.663Z,79.07
2022-11-01T23:08:30.673Z,79.12
2022-11-01T23:11:03.345Z,79.01
2022-11-01T23:13:53.506Z,79.04
2022-11-01T23:16:27.418Z,79.01
2022-11-01T23:19:01.959Z,78.98
2022-11-01T23:21:33.131Z,78.92
2022-11-01T23:24:04.163Z,79.12
2022-11-01T23:26:35.021Z,79.12
2022-11-01T23:29:06.072Z,79.11
2022-11-01T23:31:36.971Z,78.99
2022-11-01T23:34:10.439Z,78.97
2022-11-01T23:36:41.423Z,79.12
2022-11-01T23:39:15.495Z,79.13
2022-11-01T23:41:49.427Z,79.10
2022-11-01T23:44:29.060Z,78.98
2022-11-01T23:47:03.837Z,79.11
2022-11-01T23:49:35.859Z,78.84
2022-11-01T23:52:22.670Z,78.94
2022-11-01T23:54:53.558Z,79.02
2022-11-01T23:57:24.750Z,79.02
2022-11-01T23:59:55.820Z,79.02
